Time;durP1;ratioP1;P1;durP2;ratioP2;P2;SDS_P1;SDS_P2;PMS_P1;PMS_P2;Temp;Humidity;BMP_temperature;BMP_pressure;BME280_temperature;BME280_humidity;BME280_pressure;Samples;Min_cycle;Max_cycle;Signal;HPM_P1;HPM_P2
2024/04/11 00:00:03;;;;;;;2.43;2.07;;;6.10;99.90;5.80;102144.00;;;;5270667;26;79649;-63
2024/04/11 00:02:29;;;;;;;2.37;1.93;;;6.10;99.90;5.80;102147.00;;;;5268646;26;80234;-63
2024/04/11 00:04:55;;;;;;;4.30;3.00;;;6.20;99.90;5.80;102143.00;;;;5269098;26;79581;-63
2024/04/11 00:07:21;;;;;;;4.10;2.37;;;6.20;99.90;5.80;102149.00;;;;5269138;26;78987;-64
2024/04/11 00:09:46;;;;;;;3.17;2.30;;;6.00;99.90;5.80;102150.00;;;;5274079;26;108755;-63
2024/04/11 00:12:12;;;;;;;2.53;2.13;;;6.00;99.90;5.70;102151.00;;;;5273675;26;109861;-65
2024/04/11 00:14:38;;;;;;;2.97;2.23;;;6.00;99.90;5.70;102134.00;;;;5271220;26;107136;-64
2024/04/11 00:17:04;;;;;;;4.27;2.23;;;5.80;99.90;5.60;102141.00;;;;5272195;26;106895;-64
2024/04/11 00:19:30;;;;;;;2.37;2.17;;;6.00;99.90;5.60;102136.00;;;;5268806;26;89044;-64
2024/04/11 00:21:55;;;;;;;5.00;2.30;;;5.90;99.90;5.50;102131.00;;;;5267075;26;110404;-63
2024/04/11 00:24:21;;;;;;;3.60;2.27;;;6.40;99.90;5.50;102134.00;;;;5271743;26;108809;-64
2024/04/11 00:26:48;;;;;;;2.83;2.23;;;5.70;99.90;5.40;102132.00;;;;5270820;26;105727;-64
2024/04/11 00:29:13;;;;;;;3.53;2.00;;;6.40;99.90;5.40;102131.00;;;;5272329;26;79448;-64
2024/04/11 00:31:39;;;;;;;2.60;2.00;;;5.60;99.90;5.40;102129.00;;;;5266015;26;99711;-64
2024/04/11 00:34:15;;;;;;;3.23;2.80;;;5.60;99.90;5.40;102108.00;;;;5268535;26;107698;-64
2024/04/11 00:36:43;;;;;;;2.73;2.40;;;5.60;99.90;5.30;102125.00;;;;5276637;26;79298;-64
2024/04/11 00:39:10;;;;;;;2.97;2.00;;;5.50;99.90;5.30;102133.00;;;;5274853;26;80752;-63
2024/04/11 00:41:36;;;;;;;5.23;2.67;;;5.50;99.90;5.30;102128.00;;;;5272803;26;81197;-64
2024/04/11 00:44:02;;;;;;;3.97;2.40;;;5.50;99.90;5.20;102127.00;;;;5270932;26;79776;-64
2024/04/11 00:46:29;;;;;;;7.63;2.27;;;6.10;99.90;5.20;102130.00;;;;5273130;26;79578;-64
2024/04/11 00:48:55;;;;;;;4.70;2.60;;;5.40;99.90;5.20;102131.00;;;;5269478;26;79661;-64
2024/04/11 00:51:24;;;;;;;3.47;2.47;;;5.50;99.90;5.20;102132.00;;;;5268234;26;101012;-63
2024/04/11 00:53:56;;;;;;;3.33;2.00;;;5.40;99.90;5.10;102132.00;;;;5269855;26;106827;-63
2024/04/11 00:56:23;;;;;;;3.07;2.37;;;6.00;99.90;5.10;102125.00;;;;5273842;26;78842;-64
2024/04/11 00:58:48;;;;;;;3.33;2.30;;;5.30;99.90;5.10;102121.00;;;;5274415;26;80094;-63
2024/04/11 01:01:14;;;;;;;2.50;1.80;;;5.30;99.90;5.10;102119.00;;;;5269295;26;80875;-63
2024/04/11 01:03:40;;;;;;;2.77;2.40;;;5.20;99.90;5.00;102132.00;;;;5269023;26;80356;-64
2024/04/11 01:06:06;;;;;;;3.03;2.27;;;5.30;99.90;5.00;102114.00;;;;5268996;26;106433;-63
2024/04/11 01:08:32;;;;;;;2.97;2.67;;;5.20;99.90;5.00;102114.00;;;;5269402;26;109577;-64
2024/04/11 01:10:57;;;;;;;3.93;2.40;;;5.30;99.90;5.00;102121.00;;;;5273641;26;84762;-63
2024/04/11 01:13:23;;;;;;;5.60;2.80;;;5.30;99.90;5.00;102112.00;;;;5266563;26;79706;-63
2024/04/11 01:15:49;;;;;;;4.13;2.67;;;5.80;99.90;5.00;102121.00;;;;5272113;26;79495;-64
2024/04/11 01:18:15;;;;;;;3.43;2.37;;;5.20;99.90;5.00;102112.00;;;;5270298;26;108183;-63
2024/04/11 01:20:43;;;;;;;4.93;1.70;;;5.50;99.90;5.00;102115.00;;;;5270213;26;81132;-63
2024/04/11 01:23:08;;;;;;;3.83;2.27;;;5.90;99.90;5.00;102119.00;;;;5271130;26;79554;-63
2024/04/11 01:25:34;;;;;;;2.60;2.23;;;5.20;99.90;5.00;102117.00;;;;5273859;26;106801;-65
2024/04/11 01:28:00;;;;;;;4.67;2.17;;;5.20;99.90;4.90;102126.00;;;;5266686;26;104880;-63
2024/04/11 01:30:27;;;;;;;2.53;2.30;;;5.20;99.90;4.90;102112.00;;;;5268806;26;109516;-64
2024/04/11 01:33:09;;;;;;;8.73;2.80;;;5.20;99.90;4.90;102121.00;;;;5268481;26;79674;-63
2024/04/11 01:35:38;;;;;;;2.93;2.63;;;5.80;99.90;4.90;102114.00;;;;5270097;26;80222;-64
2024/04/11 01:38:05;;;;;;;3.07;2.30;;;5.10;99.90;4.90;102122.00;;;;5265298;26;81028;-63
2024/04/11 01:40:34;;;;;;;2.33;2.13;;;5.90;99.90;4.90;102115.00;;;;5275772;26;80225;-65
2024/04/11 01:43:01;;;;;;;2.87;2.43;;;5.10;99.90;4.80;102108.00;;;;5270909;26;79444;-63
2024/04/11 01:45:27;;;;;;;3.30;1.67;;;5.80;99.90;4.80;102109.00;;;;5271938;26;99902;-63
2024/04/11 01:47:53;;;;;;;1.93;1.70;;;5.10;99.90;4.80;102110.00;;;;5267503;26;108940;-63
2024/04/11 01:50:21;;;;;;;2.47;1.73;;;4.90;99.90;4.80;102108.00;;;;5271079;26;80619;-64
2024/04/11 01:52:47;;;;;;;3.93;2.27;;;5.00;99.90;4.70;102107.00;;;;5274631;26;80379;-63
2024/04/11 01:55:12;;;;;;;2.07;1.57;;;5.70;99.90;4.70;102104.00;;;;5270290;26;99577;-63
2024/04/11 01:57:38;;;;;;;1.73;1.50;;;5.00;99.90;4.70;102098.00;;;;5272222;26;100164;-64
2024/04/11 02:00:12;;;;;;;3.83;2.10;;;4.90;99.90;4.70;102102.00;;;;5274224;26;110343;-63
2024/04/11 02:02:49;;;;;;;2.17;1.27;;;5.00;99.90;4.70;102110.00;;;;5272054;26;79944;-63
2024/04/11 02:05:15;;;;;;;5.20;1.80;;;4.90;99.90;4.70;102101.00;;;;5269317;26;79233;-63
2024/04/11 02:07:42;;;;;;;1.37;1.23;;;5.10;99.90;4.60;102107.00;;;;5268826;26;81135;-63
2024/04/11 02:10:10;;;;;;;1.63;1.53;;;4.90;99.90;4.60;102114.00;;;;5271436;26;109545;-64
2024/04/11 02:12:37;;;;;;;1.73;1.60;;;4.90;99.90;4.60;102120.00;;;;5272677;26;79523;-64
2024/04/11 02:15:06;;;;;;;2.30;2.07;;;4.80;99.90;4.60;102120.00;;;;5269387;26;79437;-64
2024/04/11 02:17:34;;;;;;;2.80;1.67;;;4.80;99.90;4.50;102121.00;;;;5268391;26;81223;-63
2024/04/11 02:19:59;;;;;;;1.73;1.50;;;5.40;99.90;4.50;102138.00;;;;5271477;26;81431;-65
2024/04/11 02:22:25;;;;;;;3.43;2.33;;;5.30;99.90;4.40;102126.00;;;;5265966;26;107445;-64
2024/04/11 02:24:51;;;;;;;1.73;1.23;;;4.80;99.90;4.40;102136.00;;;;5271591;26;106435;-64
2024/04/11 02:27:17;;;;;;;2.07;1.60;;;4.60;99.90;4.30;102122.00;;;;5269871;26;80123;-63
2024/04/11 02:29:44;;;;;;;2.17;1.77;;;4.60;99.90;4.30;102121.00;;;;5270773;26;80463;-63
2024/04/11 02:32:09;;;;;;;1.30;1.20;;;4.60;99.90;4.30;102128.00;;;;5275027;26;81421;-64
2024/04/11 02:34:36;;;;;;;3.03;1.77;;;4.50;99.90;4.20;102129.00;;;;5267514;26;107524;-63
2024/04/11 02:37:02;;;;;;;4.43;2.30;;;4.50;99.90;4.20;102127.00;;;;5275907;26;80389;-63
2024/04/11 02:39:27;;;;;;;3.83;2.17;;;4.30;99.90;4.20;102132.00;;;;5265743;26;110405;-63
2024/04/11 02:41:53;;;;;;;2.67;2.00;;;4.50;99.90;4.10;102111.00;;;;5267525;26;108049;-64
2024/04/11 02:44:19;;;;;;;1.67;1.57;;;4.40;99.90;4.10;102127.00;;;;5269575;26;106403;-63
2024/04/11 02:46:45;;;;;;;1.87;1.77;;;4.00;99.90;4.10;102127.00;;;;5270319;26;80030;-63
2024/04/11 02:49:11;;;;;;;2.07;1.83;;;4.30;99.90;4.00;102133.00;;;;5266279;26;100241;-62
2024/04/11 02:51:37;;;;;;;1.43;1.30;;;4.20;99.90;4.00;102119.00;;;;5268617;26;107775;-64
2024/04/11 02:54:07;;;;;;;2.97;2.20;;;4.20;99.90;4.00;102129.00;;;;5277959;26;106901;-65
2024/04/11 02:56:33;;;;;;;4.00;2.07;;;4.20;99.90;3.90;102129.00;;;;5277889;26;79507;-64
2024/04/11 02:58:59;;;;;;;3.33;2.33;;;4.30;99.90;3.90;102128.00;;;;5271534;26;103186;-64
2024/04/11 03:01:25;;;;;;;3.00;1.90;;;4.20;99.90;3.90;102119.00;;;;5269183;26;80199;-65
2024/04/11 03:03:55;;;;;;;2.07;1.87;;;4.20;99.90;3.90;102117.00;;;;5270508;26;79485;-64
2024/04/11 03:06:21;;;;;;;2.43;2.03;;;4.20;99.90;3.90;102114.00;;;;5272528;26;81811;-64
2024/04/11 03:08:58;;;;;;;2.83;2.33;;;4.20;99.90;3.80;102112.00;;;;5274827;26;110217;-65
2024/04/11 03:11:24;;;;;;;3.20;1.97;;;4.20;99.90;3.80;102121.00;;;;5277900;26;79787;-63
2024/04/11 03:13:55;;;;;;;1.60;1.50;;;4.30;99.90;3.80;102120.00;;;;5276160;26;80305;-64
2024/04/11 03:16:26;;;;;;;2.37;1.47;;;4.10;99.90;3.80;102114.00;;;;5272039;26;81078;-64
2024/04/11 03:18:53;;;;;;;2.57;2.07;;;4.10;99.90;3.80;102118.00;;;;5268792;26;79848;-65
2024/04/11 03:21:21;;;;;;;3.57;2.03;;;3.90;99.90;3.70;102117.00;;;;5269639;26;86280;-63
2024/04/11 03:23:47;;;;;;;2.10;1.63;;;4.00;99.90;3.70;102114.00;;;;5270388;26;79077;-63
2024/04/11 03:26:14;;;;;;;3.50;2.30;;;4.00;99.90;3.70;102113.00;;;;5275658;26;85685;-63
2024/04/11 03:28:42;;;;;;;2.40;2.13;;;3.90;99.90;3.70;102120.00;;;;5263940;26;82048;-63
2024/04/11 03:31:10;;;;;;;2.43;2.00;;;3.90;99.90;3.60;102120.00;;;;5270958;26;80726;-64
2024/04/11 03:33:37;;;;;;;2.23;1.93;;;3.90;99.90;3.60;102119.00;;;;5275537;26;79627;-63
2024/04/11 03:36:06;;;;;;;2.17;1.97;;;3.90;99.90;3.60;102128.00;;;;5273682;26;102238;-63
2024/04/11 03:38:33;;;;;;;2.97;2.13;;;4.00;99.90;3.60;102122.00;;;;5279039;26;81145;-64
2024/04/11 03:41:02;;;;;;;2.83;2.20;;;3.90;99.90;3.60;102121.00;;;;5279937;26;79660;-65
2024/04/11 03:43:29;;;;;;;2.40;2.20;;;3.90;99.90;3.60;102122.00;;;;5277425;26;79457;-64
2024/04/11 03:46:21;;;;;;;3.73;2.73;;;4.50;99.90;3.50;102122.00;;;;5274358;26;101681;-64
2024/04/11 03:48:55;;;;;;;1.60;1.50;;;3.80;99.90;3.50;102125.00;;;;5277896;26;79188;-63
2024/04/11 03:51:24;;;;;;;2.07;1.80;;;3.80;99.90;3.50;102130.00;;;;5283125;26;80027;-64
2024/04/11 03:53:53;;;;;;;1.60;1.50;;;3.80;99.90;3.50;102132.00;;;;5276382;26;79420;-64
2024/04/11 03:56:21;;;;;;;4.03;2.53;;;3.70;99.90;3.40;102142.00;;;;5272352;26;81896;-64
2024/04/11 03:58:49;;;;;;;2.03;1.70;;;3.70;99.90;3.40;102143.00;;;;5272472;26;81489;-64
2024/04/11 04:01:15;;;;;;;3.23;2.43;;;3.60;99.90;3.40;102154.00;;;;5275623;26;80103;-64
2024/04/11 04:03:47;;;;;;;2.80;1.77;;;3.70;99.90;3.40;102155.00;;;;5274637;26;80254;-64
2024/04/11 04:06:13;;;;;;;2.83;2.07;;;3.70;99.90;3.40;102150.00;;;;5276820;26;80642;-63
2024/04/11 04:08:46;;;;;;;4.63;1.93;;;3.70;99.90;3.40;102148.00;;;;5279834;26;102888;-63
2024/04/11 04:11:13;;;;;;;2.23;2.03;;;3.60;99.90;3.40;102145.00;;;;5307064;26;80133;-63
2024/04/11 04:13:40;;;;;;;3.70;2.00;;;3.60;99.90;3.40;102133.00;;;;5277592;26;80259;-63
2024/04/11 04:16:17;;;;;;;2.20;1.23;;;3.70;99.90;3.40;102155.00;;;;5271386;26;80024;-64
2024/04/11 04:18:52;;;;;;;2.43;1.73;;;3.70;99.90;3.30;102143.00;;;;5271304;26;79530;-63
2024/04/11 04:21:26;;;;;;;3.50;2.30;;;3.70;99.90;3.30;102144.00;;;;5273653;26;80580;-63
2024/04/11 04:23:55;;;;;;;5.10;2.60;;;3.60;99.90;3.30;102137.00;;;;5272112;26;79493;-63
2024/04/11 04:26:26;;;;;;;5.53;2.13;;;4.40;99.90;3.30;102147.00;;;;5269572;26;80574;-63
2024/04/11 04:28:53;;;;;;;2.33;1.93;;;3.50;99.90;3.30;102139.00;;;;5272122;26;81171;-63
2024/04/11 04:31:28;;;;;;;4.63;2.67;;;3.60;99.90;3.20;102138.00;;;;5268375;26;79685;-62
2024/04/11 04:33:58;;;;;;;3.93;2.53;;;5.00;99.90;3.30;102140.00;;;;5266046;26;80130;-63
2024/04/11 04:36:34;;;;;;;7.47;2.83;;;3.50;99.90;3.30;102125.00;;;;5268252;26;80849;-63
2024/04/11 04:39:04;;;;;;;4.00;2.63;;;3.60;99.90;3.30;102129.00;;;;5271535;26;80618;-62
2024/04/11 04:41:30;;;;;;;3.37;2.87;;;3.50;99.90;3.30;102138.00;;;;5274005;26;79501;-63
2024/04/11 04:44:00;;;;;;;4.37;3.27;;;3.60;99.90;3.30;102133.00;;;;5269804;26;106354;-63
2024/04/11 04:46:32;;;;;;;4.13;2.57;;;3.60;99.90;3.40;102139.00;;;;5270575;26;85734;-64
2024/04/11 04:49:02;;;;;;;3.07;2.30;;;4.10;99.90;3.40;102140.00;;;;5268143;26;81564;-63
2024/04/11 04:51:31;;;;;;;3.93;2.80;;;3.80;99.90;3.40;102141.00;;;;5274774;26;80238;-63
2024/04/11 04:54:01;;;;;;;2.90;2.60;;;3.70;99.90;3.50;102140.00;;;;5276400;26;79731;-62
2024/04/11 04:56:29;;;;;;;4.17;2.43;;;3.80;99.90;3.60;102138.00;;;;5275185;26;79772;-63
2024/04/11 04:58:56;;;;;;;3.50;3.20;;;3.80;99.90;3.70;102147.00;;;;5280493;26;79661;-64
2024/04/11 05:01:23;;;;;;;2.73;2.27;;;3.90;99.90;3.80;102140.00;;;;5277285;26;79618;-64
2024/04/11 05:03:50;;;;;;;6.07;3.23;;;4.00;99.90;3.90;102149.00;;;;5274361;26;80363;-63
2024/04/11 05:06:16;;;;;;;3.43;3.07;;;4.10;99.90;4.00;102144.00;;;;5279362;26;79832;-64
2024/04/11 05:08:46;;;;;;;5.87;4.23;;;4.20;99.90;4.20;102158.00;;;;5275525;26;79826;-64
2024/04/11 05:11:13;;;;;;;6.00;3.83;;;4.30;99.90;4.30;102156.00;;;;5269837;26;80696;-63
2024/04/11 05:13:39;;;;;;;8.73;4.00;;;4.50;99.90;4.50;102159.00;;;;5281530;26;79491;-64
2024/04/11 05:16:07;;;;;;;6.27;3.37;;;4.60;99.90;4.70;102157.00;;;;5273544;26;79596;-64
2024/04/11 05:18:37;;;;;;;3.13;2.47;;;4.80;99.90;4.80;102167.00;;;;5275308;26;80683;-63
2024/04/11 05:21:06;;;;;;;3.43;3.03;;;5.30;99.90;5.00;102166.00;;;;5273795;26;79586;-63
2024/04/11 05:23:38;;;;;;;2.50;2.30;;;5.10;99.90;5.10;102178.00;;;;5276159;26;79328;-63
2024/04/11 05:26:14;;;;;;;4.30;2.83;;;5.40;99.90;5.20;102167.00;;;;5277870;26;80613;-63
2024/04/11 05:28:44;;;;;;;3.40;2.40;;;5.40;99.90;5.40;102183.00;;;;5275745;26;80566;-63
2024/04/11 05:31:16;;;;;;;3.97;2.73;;;6.10;99.90;5.60;102186.00;;;;5270855;26;79505;-64
2024/04/11 05:33:44;;;;;;;4.20;2.30;;;5.70;99.90;5.70;102191.00;;;;5276449;26;79885;-64
2024/04/11 05:36:12;;;;;;;3.43;2.53;;;6.60;99.90;5.90;102181.00;;;;5275396;26;81413;-63
2024/04/11 05:38:44;;;;;;;5.63;3.27;;;6.10;99.90;6.10;102181.00;;;;5272873;26;80461;-63
2024/04/11 05:41:14;;;;;;;5.80;3.37;;;6.20;99.90;6.30;102188.00;;;;5277983;26;80227;-63
2024/04/11 05:43:42;;;;;;;9.83;2.90;;;6.40;99.90;6.50;102186.00;;;;5277649;26;79493;-64
2024/04/11 05:46:13;;;;;;;5.37;3.00;;;7.10;99.90;6.80;102190.00;;;;5276781;26;79775;-65
2024/04/11 05:48:40;;;;;;;3.43;2.70;;;6.90;99.90;7.00;102184.00;;;;5274167;26;84741;-64
2024/04/11 05:51:06;;;;;;;4.73;2.60;;;7.10;99.90;7.20;102186.00;;;;5275911;26;93496;-64
2024/04/11 05:53:36;;;;;;;5.57;3.30;;;7.30;99.90;7.50;102188.00;;;;5282184;26;107111;-64
2024/04/11 05:56:03;;;;;;;3.63;2.20;;;7.50;99.90;7.70;102185.00;;;;5272611;26;80910;-64
2024/04/11 05:58:30;;;;;;;4.40;2.10;;;7.80;99.90;8.00;102190.00;;;;5276565;26;80014;-65
2024/04/11 06:01:00;;;;;;;3.10;2.53;;;8.00;99.90;8.30;102183.00;;;;5270719;26;95605;-63
2024/04/11 06:03:29;;;;;;;3.17;2.87;;;8.30;99.90;8.60;102187.00;;;;5275517;26;79369;-65
2024/04/11 06:05:55;;;;;;;3.83;2.90;;;8.60;99.90;8.80;102193.00;;;;5274734;26;79467;-64
2024/04/11 06:08:22;;;;;;;4.23;2.40;;;8.80;99.90;9.00;102190.00;;;;5274804;26;99779;-64
2024/04/11 06:10:48;;;;;;;3.80;2.03;;;9.10;99.90;9.20;102195.00;;;;5273418;26;79483;-64
2024/04/11 06:13:14;;;;;;;3.23;2.40;;;9.20;99.90;9.50;102196.00;;;;5272030;26;79719;-64
2024/04/11 06:15:42;;;;;;;5.77;2.43;;;9.50;99.90;9.70;102202.00;;;;5279359;26;80791;-64
2024/04/11 06:18:09;;;;;;;2.87;1.73;;;9.70;99.90;10.00;102201.00;;;;5269343;26;80659;-64
2024/04/11 06:20:39;;;;;;;3.73;2.23;;;9.90;99.90;10.20;102205.00;;;;5271713;26;79547;-64
2024/04/11 06:23:15;;;;;;;4.00;2.17;;;10.10;99.90;10.40;102200.00;;;;5269670;26;107997;-63
2024/04/11 06:25:42;;;;;;;2.40;2.10;;;10.40;99.90;10.70;102208.00;;;;5270868;26;84934;-64
2024/04/11 06:28:14;;;;;;;4.20;2.47;;;10.60;99.90;10.80;102207.00;;;;5275416;26;87972;-64
2024/04/11 06:30:45;;;;;;;2.40;1.43;;;10.90;99.90;11.00;102199.00;;;;5277002;26;79952;-64
2024/04/11 06:33:13;;;;;;;2.47;1.70;;;11.10;99.90;11.30;102205.00;;;;5280067;26;80333;-65
2024/04/11 06:35:39;;;;;;;1.90;1.70;;;11.30;99.90;11.40;102206.00;;;;5277531;26;81064;-64
2024/04/11 06:38:05;;;;;;;1.87;1.50;;;11.50;99.90;11.60;102207.00;;;;5278601;26;110434;-65
2024/04/11 06:40:32;;;;;;;2.97;1.90;;;11.60;99.90;11.80;102199.00;;;;5279262;26;79439;-64
2024/04/11 06:42:59;;;;;;;1.27;1.17;;;11.80;99.90;12.00;102202.00;;;;5277759;26;78777;-63
2024/04/11 06:45:25;;;;;;;2.60;1.63;;;12.00;99.90;12.20;102196.00;;;;5276774;26;81198;-64
2024/04/11 06:47:53;;;;;;;1.57;1.33;;;12.10;99.90;12.30;102190.00;;;;5275089;26;109719;-64
2024/04/11 06:50:22;;;;;;;4.03;1.53;;;12.40;99.90;12.50;102190.00;;;;5273778;26;90839;-64
2024/04/11 06:52:48;;;;;;;5.27;1.50;;;12.50;99.90;12.60;102195.00;;;;5277385;26;79539;-63
2024/04/11 06:55:14;;;;;;;2.70;1.70;;;12.60;99.90;12.70;102197.00;;;;5282156;26;79981;-64
2024/04/11 06:57:44;;;;;;;1.50;1.30;;;12.90;99.90;13.00;102183.00;;;;5276690;26;80079;-64
2024/04/11 07:00:35;;;;;;;4.00;1.67;;;12.90;99.90;13.20;102188.00;;;;5279529;26;79732;-64
2024/04/11 07:03:16;;;;;;;3.63;1.87;;;13.20;99.90;13.50;102190.00;;;;5275338;26;79480;-63
2024/04/11 07:05:57;;;;;;;2.10;1.13;;;13.50;99.90;13.70;102187.00;;;;5277252;26;79905;-64
2024/04/11 07:08:31;;;;;;;1.77;1.10;;;13.70;99.90;13.90;102192.00;;;;5274825;26;80983;-64
2024/04/11 07:11:20;;;;;;;1.83;1.63;;;13.90;99.90;14.20;102198.00;;;;5277401;26;79173;-65
2024/04/11 07:13:46;;;;;;;1.27;1.17;;;14.10;99.90;14.50;102193.00;;;;5276874;26;80220;-64
2024/04/11 07:16:16;;;;;;;2.67;1.55;;;14.40;99.90;14.80;102209.00;;;;5277662;26;88882;-63
2024/04/11 07:18:54;;;;;;;1.27;1.17;;;14.80;99.90;15.10;102211.00;;;;5274131;26;80474;-64
2024/04/11 07:21:25;;;;;;;1.00;0.85;;;15.00;99.80;15.20;102204.00;;;;5277970;26;79779;-64
2024/04/11 07:23:55;;;;;;;1.73;1.27;;;15.20;99.50;15.40;102199.00;;;;5281171;26;79515;-63
2024/04/11 07:26:24;;;;;;;2.53;1.15;;;15.40;98.70;15.60;102207.00;;;;5281208;26;81489;-64
2024/04/11 07:28:51;;;;;;;3.25;1.30;;;15.60;98.20;15.80;102202.00;;;;5282507;26;80461;-64
2024/04/11 07:31:17;;;;;;;2.50;1.88;;;15.80;96.90;15.90;102201.00;;;;5273551;26;85934;-64
2024/04/11 07:33:48;;;;;;;1.05;0.90;;;15.90;95.90;16.10;102202.00;;;;5275730;26;86641;-64
2024/04/11 07:36:22;;;;;;;1.00;0.93;;;16.10;95.20;16.20;102210.00;;;;5280002;26;80330;-64
2024/04/11 07:38:52;;;;;;;1.85;1.13;;;16.20;94.90;16.30;102205.00;;;;5277770;26;81116;-64
2024/04/11 07:41:20;;;;;;;1.38;0.85;;;16.30;93.90;16.50;102208.00;;;;5272455;26;80837;-64
2024/04/11 07:43:52;;;;;;;2.05;1.65;;;16.50;93.40;16.60;102215.00;;;;5273496;26;79632;-64
2024/04/11 07:46:19;;;;;;;3.30;0.90;;;16.60;91.60;16.60;102209.00;;;;5273738;26;101605;-64
2024/04/11 07:48:47;;;;;;;0.85;0.73;;;16.70;90.10;16.60;102219.00;;;;5275702;26;101322;-63
2024/04/11 07:51:16;;;;;;;0.95;0.88;;;16.60;89.50;16.60;102208.00;;;;5281752;26;80017;-63
2024/04/11 07:53:46;;;;;;;2.15;1.42;;;16.70;87.70;16.60;102213.00;;;;5280834;26;105268;-63
2024/04/11 07:56:23;;;;;;;1.75;1.23;;;16.70;86.30;16.60;102217.00;;;;5279178;26;80927;-64
2024/04/11 07:58:53;;;;;;;1.17;1.08;;;16.70;86.10;16.60;102225.00;;;;5281622;26;79984;-64
2024/04/11 08:01:31;;;;;;;3.25;1.35;;;16.70;86.10;16.60;102222.00;;;;5275521;26;82072;-63
2024/04/11 08:03:57;;;;;;;2.35;1.45;;;16.70;86.40;16.80;102226.00;;;;5280218;26;79501;-63
2024/04/11 08:06:23;;;;;;;2.72;1.30;;;16.80;87.20;17.00;102223.00;;;;5277336;26;82305;-64
2024/04/11 08:08:49;;;;;;;1.45;1.08;;;17.00;82.90;16.90;102228.00;;;;5277350;26;110715;-65
2024/04/11 08:11:15;;;;;;;2.78;0.80;;;17.00;82.30;16.90;102231.00;;;;5272613;26;82696;-65
2024/04/11 08:13:43;;;;;;;2.15;1.10;;;17.00;83.30;17.10;102240.00;;;;5279388;26;79774;-65
2024/04/11 08:16:10;;;;;;;2.03;1.20;;;17.10;84.00;17.30;102228.00;;;;5273848;26;81335;-66
2024/04/11 08:18:37;;;;;;;1.35;0.80;;;17.30;82.70;17.30;102234.00;;;;5277836;26;79976;-64
2024/04/11 08:21:09;;;;;;;1.85;0.82;;;17.40;82.00;17.40;102234.00;;;;5278000;26;79462;-64
2024/04/11 08:23:39;;;;;;;4.00;1.38;;;17.50;81.70;17.60;102239.00;;;;5275526;26;80116;-64
2024/04/11 08:26:06;;;;;;;2.83;1.55;;;17.60;81.90;17.80;102248.00;;;;5276104;26;80533;-64
2024/04/11 08:28:37;;;;;;;1.15;1.02;;;17.80;80.80;18.00;102251.00;;;;5277486;26;80568;-64
2024/04/11 08:31:06;;;;;;;1.27;0.82;;;17.90;78.20;17.90;102245.00;;;;5276789;26;80443;-64
2024/04/11 08:33:33;;;;;;;4.15;0.93;;;18.00;77.70;18.00;102245.00;;;;5279958;26;79548;-64
2024/04/11 08:36:00;;;;;;;1.17;0.95;;;18.00;77.90;18.10;102240.00;;;;5281350;26;92186;-64
2024/04/11 08:38:26;;;;;;;1.48;1.13;;;18.10;77.60;18.20;102238.00;;;;5276696;26;80407;-64
2024/04/11 08:40:54;;;;;;;1.85;1.33;;;17.40;77.80;18.20;102242.00;;;;5274881;26;79499;-64
2024/04/11 08:43:22;;;;;;;3.15;1.08;;;18.30;76.80;18.40;102245.00;;;;5276496;26;79578;-64
2024/04/11 08:45:48;;;;;;;0.85;0.65;;;18.40;75.70;18.40;102249.00;;;;5276477;26;79713;-64
2024/04/11 08:48:13;;;;;;;1.55;1.10;;;18.40;73.90;18.40;102241.00;;;;5269452;26;108963;-64
2024/04/11 08:50:44;;;;;;;2.65;1.13;;;18.50;72.70;18.50;102239.00;;;;5277129;26;107831;-65
2024/04/11 08:53:10;;;;;;;2.83;0.95;;;18.50;72.80;18.60;102241.00;;;;5278821;26;79566;-64
2024/04/11 08:55:36;;;;;;;3.15;1.02;;;18.60;73.20;18.80;102252.00;;;;5279379;26;82076;-64
2024/04/11 08:58:03;;;;;;;1.38;0.85;;;18.70;71.90;19.10;102247.00;;;;5271782;26;111500;-66
2024/04/11 09:00:30;;;;;;;1.77;1.00;;;19.00;71.50;19.30;102249.00;;;;5275637;26;87617;-65
2024/04/11 09:02:55;;;;;;;2.83;0.68;;;19.10;69.20;19.40;102245.00;;;;5273501;26;106922;-64
2024/04/11 09:05:22;;;;;;;2.42;1.02;;;19.20;68.30;19.50;102246.00;;;;5271315;26;110253;-65
2024/04/11 09:07:50;;;;;;;0.70;0.60;;;19.40;68.00;19.70;102243.00;;;;5276779;26;79677;-64
2024/04/11 09:10:19;;;;;;;3.53;1.05;;;19.50;66.80;19.90;102250.00;;;;5271453;26;80383;-64
2024/04/11 09:12:48;;;;;;;0.85;0.68;;;19.70;65.70;20.10;102250.00;;;;5273072;26;78773;-64
2024/04/11 09:15:18;;;;;;;1.25;1.05;;;19.90;64.40;20.10;102248.00;;;;5271575;26;79923;-64
2024/04/11 09:17:45;;;;;;;1.05;0.52;;;20.00;60.30;20.10;102252.00;;;;5279419;26;81343;-64
2024/04/11 09:20:19;;;;;;;0.63;0.50;;;20.10;59.10;20.20;102247.00;;;;5276452;26;82596;-64
2024/04/11 09:22:59;;;;;;;1.15;1.00;;;20.10;59.30;20.30;102247.00;;;;5277487;26;79298;-64
2024/04/11 09:25:30;;;;;;;1.40;0.77;;;20.20;59.50;20.40;102252.00;;;;5275541;26;80339;-64
2024/04/11 09:27:59;;;;;;;0.77;0.70;;;20.30;58.60;20.50;102245.00;;;;5277480;26;79626;-64
2024/04/11 09:30:30;;;;;;;2.00;0.68;;;20.30;58.30;20.60;102249.00;;;;5273098;26;107208;-63
2024/04/11 09:33:04;;;;;;;4.47;1.48;;;20.40;59.20;20.80;102243.00;;;;5271433;26;83797;-64
2024/04/11 09:35:40;;;;;;;1.83;0.77;;;20.60;58.30;21.00;102251.00;;;;5274257;26;80981;-65
2024/04/11 09:38:12;;;;;;;4.47;0.90;;;20.80;58.20;21.00;102245.00;;;;5277326;26;80311;-65
2024/04/11 09:40:50;;;;;;;2.08;1.15;;;20.80;55.70;20.90;102242.00;;;;5285192;26;80034;-65
2024/04/11 09:43:17;;;;;;;1.15;0.90;;;20.80;53.90;20.60;102241.00;;;;5276819;26;79321;-64
2024/04/11 09:45:50;;;;;;;0.98;0.90;;;20.60;53.40;20.50;102242.00;;;;5276666;26;80780;-64
2024/04/11 09:48:21;;;;;;;3.58;1.65;;;20.50;54.20;20.60;102239.00;;;;5273694;26;80607;-65
2024/04/11 09:50:49;;;;;;;2.03;0.80;;;20.40;53.90;20.70;102238.00;;;;5272172;26;79036;-64
2024/04/11 09:53:26;;;;;;;1.20;1.08;;;20.50;54.10;20.80;102231.00;;;;5268285;26;79555;-64
2024/04/11 09:55:56;;;;;;;1.73;0.88;;;20.50;53.10;20.90;102233.00;;;;5271607;26;80243;-64
2024/04/11 09:58:28;;;;;;;1.48;1.00;;;20.60;52.30;20.90;102225.00;;;;5274976;26;79773;-64
2024/04/11 10:01:05;;;;;;;1.17;0.90;;;20.60;51.40;20.80;102230.00;;;;5277938;26;80269;-65
2024/04/11 10:03:33;;;;;;;1.08;0.75;;;20.60;49.80;20.50;102234.00;;;;5325855;26;78880;-63
2024/04/11 10:06:04;;;;;;;1.02;0.60;;;20.30;49.80;20.40;102240.00;;;;5277761;26;79618;-63
2024/04/11 10:08:34;;;;;;;3.20;0.90;;;20.20;49.80;20.40;102238.00;;;;5277801;26;79769;-64
2024/04/11 10:11:14;;;;;;;2.08;0.82;;;20.10;49.80;20.40;102242.00;;;;5277565;26;92806;-63
2024/04/11 10:13:45;;;;;;;1.83;0.77;;;20.10;49.10;20.50;102236.00;;;;5274112;26;79654;-64
2024/04/11 10:16:21;;;;;;;0.98;0.88;;;20.20;50.00;20.60;102241.00;;;;5277626;26;81102;-63
2024/04/11 10:19:04;;;;;;;1.80;1.05;;;20.20;49.80;20.60;102236.00;;;;5275892;26;80929;-63
2024/04/11 10:21:38;;;;;;;2.33;0.88;;;20.20;49.30;20.80;102241.00;;;;5279520;26;81400;-64
2024/04/11 10:24:14;;;;;;;4.30;0.93;;;20.40;49.30;21.00;102241.00;;;;5274806;26;79439;-64
2024/04/11 10:26:45;;;;;;;0.70;0.50;;;20.60;48.80;21.40;102248.00;;;;5274432;26;80604;-63
2024/04/11 10:29:18;;;;;;;2.38;1.00;;;20.90;48.60;21.40;102236.00;;;;5275782;26;81094;-63
2024/04/11 10:31:44;;;;;;;1.30;0.98;;;21.00;46.80;21.30;102245.00;;;;5272060;26;79994;-64
2024/04/11 10:34:19;;;;;;;0.95;0.50;;;21.00;47.00;21.30;102239.00;;;;5281789;26;79284;-64
2024/04/11 10:36:53;;;;;;;2.67;0.70;;;21.00;46.90;21.40;102238.00;;;;5277712;26;80513;-65
2024/04/11 10:39:19;;;;;;;1.67;1.10;;;21.10;46.80;21.50;102256.00;;;;5274044;26;81396;-64
2024/04/11 10:41:46;;;;;;;2.47;0.77;;;21.20;47.00;21.70;102246.00;;;;5278137;26;93694;-65
2024/04/11 10:44:12;;;;;;;2.40;1.20;;;21.30;45.40;21.60;102243.00;;;;5276872;26;79249;-64
2024/04/11 10:46:38;;;;;;;0.35;0.28;;;21.40;44.60;21.80;102250.00;;;;5276571;26;110573;-64
2024/04/11 10:49:15;;;;;;;1.75;0.50;;;21.40;45.50;21.90;102240.00;;;;5277875;26;96081;-65
2024/04/11 10:51:42;;;;;;;2.05;0.75;;;21.50;44.80;21.90;102241.00;;;;5324313;25;80070;-64
2024/04/11 10:54:09;;;;;;;2.92;1.10;;;21.60;44.20;22.00;102244.00;;;;5278010;26;80840;-65
2024/04/11 10:56:46;;;;;;;0.50;0.45;;;21.70;43.80;22.00;102246.00;;;;5278820;26;80957;-64
2024/04/11 10:59:18;;;;;;;0.50;0.45;;;21.70;44.40;22.20;102246.00;;;;5275764;26;80245;-63
2024/04/11 11:01:50;;;;;;;0.73;0.73;;;21.80;44.40;22.20;102243.00;;;;5274165;26;80263;-64